F/V Carmalia — FMFK — position and weather

sailwx.info

Track history (hours):
 
Tides and Currents Weather Stations Pressure Air Temp Water Temp Dewpoint Dewpoint Depression Visibility Wind Speed Wind Dir Waves Ship Positions

F/V Carmalia

Last reported at 2015-Apr-16 08:03 UTC. Time now 2015-Apr-18 11:44 UTC.
Position N 50°02' W 001°17'.

Length 17 m.

Type: Fishing. MMSI: 228222900.

Date/timePositionNaut miles runAvg speedWind from/ knotsBaromVisibWave heightAir tempDewpointWater temp
2015-Apr-16 08:03N 50°02' W 001°17'2 0.4
2015-Apr-16 02:28N 50°04' W 001°17'2 2.1
2015-Apr-16 01:18N 50°03' W 001°20'1 0.9
2015-Apr-16 00:33N 50°02' W 001°21'5 4.8
2015-Apr-15 23:27N 50°01' W 001°13'5 5.8
2015-Apr-15 22:33N 49°59' W 001°06'2 1.7
2015-Apr-15 21:34N 49°58' W 001°07'3 2.7
2015-Apr-15 20:33N 49°56' W 001°10'5 4.1
2015-Apr-15 19:18N 49°54' W 001°17'5 6.7
2015-Apr-15 18:30N 49°51' W 001°24'11 9.9
2015-Apr-15 17:24N 49°42' W 001°34'36 2.4
2015-Apr-15 02:14N 49°52' W 002°28'3 3.8
2015-Apr-15 01:29N 49°51' W 002°32'9 0.4
2015-Apr-14 03:08N 49°56' W 002°20'8 4.7
2015-Apr-14 01:23N 49°55' W 002°33'3 1.7
2015-Apr-13 23:17N 49°55' W 002°38'3 2.4
2015-Apr-13 22:13N 49°54' W 002°42'1 0.4
2015-Apr-13 19:22N 49°53' W 002°42'3 3.9
2015-Apr-13 18:32N 49°54' W 002°38'1 1.5
2015-Apr-13 17:34N 49°55' W 002°36'1 1.0
2015-Apr-13 16:33N 49°55' W 002°37'0 0.2
2015-Apr-13 15:25N 49°55' W 002°37'45 1.3
2015-Apr-12 05:08N 49°49' W 001°28'  
2015-Apr-09 19:06N 49°49' W 002°40'3 1.8
2015-Apr-09 17:29N 49°49' W 002°35'4 4.4
2015-Apr-09 16:33N 49°48' W 002°29'7 7.4
2015-Apr-09 15:34N 49°47' W 002°18'10 8.2
2015-Apr-09 14:21N 49°46' W 002°02'3 0.6
2015-Apr-09 08:31N 49°46' W 001°57'1010.7
2015-Apr-09 07:33N 49°47' W 002°14'  
2015-Apr-06 13:23N 49°47' W 001°36'6 2.0
2015-Apr-06 10:33N 49°47' W 001°45'5 4.2
2015-Apr-06 09:24N 49°48' W 001°53'10 9.0
2015-Apr-06 08:15N 49°48' W 002°09'  
Track history (hours):
 
Tides and Currents Weather Stations Pressure Air Temp Water Temp Dewpoint Dewpoint Depression Visibility Wind Speed Wind Dir Waves Ship Positions

F/V Carmalia

Last reported at 2015-Apr-16 08:03 UTC. Time now 2015-Apr-18 11:44 UTC.
Position N 50°02' W 001°17'.

Length 17 m.

Type: Fishing. MMSI: 228222900.

Date/timePositionNaut miles runAvg speedWind from/ knotsBaromVisibWave heightAir tempDewpointWater temp
2015-Apr-16 08:03N 50°02' W 001°17'2 0.4
2015-Apr-16 02:28N 50°04' W 001°17'2 2.1
2015-Apr-16 01:18N 50°03' W 001°20'1 0.9
2015-Apr-16 00:33N 50°02' W 001°21'5 4.8
2015-Apr-15 23:27N 50°01' W 001°13'5 5.8
2015-Apr-15 22:33N 49°59' W 001°06'2 1.7
2015-Apr-15 21:34N 49°58' W 001°07'3 2.7
2015-Apr-15 20:33N 49°56' W 001°10'5 4.1
2015-Apr-15 19:18N 49°54' W 001°17'5 6.7
2015-Apr-15 18:30N 49°51' W 001°24'11 9.9
2015-Apr-15 17:24N 49°42' W 001°34'36 2.4
2015-Apr-15 02:14N 49°52' W 002°28'3 3.8
2015-Apr-15 01:29N 49°51' W 002°32'9 0.4
2015-Apr-14 03:08N 49°56' W 002°20'8 4.7
2015-Apr-14 01:23N 49°55' W 002°33'3 1.7
2015-Apr-13 23:17N 49°55' W 002°38'3 2.4
2015-Apr-13 22:13N 49°54' W 002°42'1 0.4
2015-Apr-13 19:22N 49°53' W 002°42'3 3.9
2015-Apr-13 18:32N 49°54' W 002°38'1 1.5
2015-Apr-13 17:34N 49°55' W 002°36'1 1.0
2015-Apr-13 16:33N 49°55' W 002°37'0 0.2
2015-Apr-13 15:25N 49°55' W 002°37'45 1.3
2015-Apr-12 05:08N 49°49' W 001°28'  
2015-Apr-09 19:06N 49°49' W 002°40'3 1.8
2015-Apr-09 17:29N 49°49' W 002°35'4 4.4
2015-Apr-09 16:33N 49°48' W 002°29'7 7.4
2015-Apr-09 15:34N 49°47' W 002°18'10 8.2
2015-Apr-09 14:21N 49°46' W 002°02'3 0.6
2015-Apr-09 08:31N 49°46' W 001°57'1010.7
2015-Apr-09 07:33N 49°47' W 002°14'  
2015-Apr-06 13:23N 49°47' W 001°36'6 2.0
2015-Apr-06 10:33N 49°47' W 001°45'5 4.2
2015-Apr-06 09:24N 49°48' W 001°53'10 9.0
2015-Apr-06 08:15N 49°48' W 002°09'  

Dump ship's entire track history